createdAt,value
2023-04-14T00:01:30.348Z,16.83
2023-04-14T00:03:56.861Z,16.83
2023-04-14T00:06:23.209Z,16.81
2023-04-14T00:08:49.637Z,16.80
2023-04-14T00:11:16.006Z,16.79
2023-04-14T00:13:42.427Z,16.76
2023-04-14T00:16:08.828Z,16.75
2023-04-14T00:18:35.259Z,16.73
2023-04-14T00:21:01.683Z,16.73
2023-04-14T00:23:28.072Z,16.73
2023-04-14T00:25:54.440Z,16.72
2023-04-14T00:28:21.009Z,16.71
2023-04-14T00:30:48.506Z,16.71
2023-04-14T00:33:14.863Z,16.70
2023-04-14T00:35:41.459Z,16.69
2023-04-14T00:38:07.842Z,16.68
2023-04-14T00:40:34.215Z,16.67
2023-04-14T00:43:00.631Z,16.64
2023-04-14T00:45:27.011Z,16.63
2023-04-14T00:47:53.500Z,16.60
2023-04-14T00:50:19.803Z,16.59
2023-04-14T00:52:46.211Z,16.56
2023-04-14T00:55:12.563Z,16.54
2023-04-14T00:57:38.993Z,16.52
2023-04-14T01:00:05.429Z,16.49
2023-04-14T01:02:31.939Z,16.48
2023-04-14T01:04:58.356Z,16.46
2023-04-14T01:07:24.612Z,16.45
2023-04-14T01:09:50.982Z,16.43
2023-04-14T01:12:17.376Z,16.42
2023-04-14T01:14:43.778Z,16.42
2023-04-14T01:17:10.161Z,16.40
2023-04-14T01:19:39.057Z,16.39
2023-04-14T01:22:05.483Z,16.38
2023-04-14T01:24:31.877Z,16.36
2023-04-14T01:26:58.243Z,16.35
2023-04-14T01:29:24.631Z,16.33
2023-04-14T01:31:51.050Z,16.32
2023-04-14T01:34:17.477Z,16.31
2023-04-14T01:36:43.943Z,16.30
2023-04-14T01:39:10.247Z,16.28
2023-04-14T01:41:36.683Z,16.28
2023-04-14T01:44:03.100Z,16.27
2023-04-14T01:46:29.526Z,16.26
2023-04-14T01:48:55.918Z,16.25
2023-04-14T01:51:22.323Z,16.24
2023-04-14T01:53:48.755Z,16.22
2023-04-14T01:56:15.146Z,16.20
2023-04-14T01:58:41.519Z,16.20
2023-04-14T02:01:08.052Z,16.17
2023-04-14T02:03:34.384Z,16.16
2023-04-14T02:06:00.756Z,16.16
2023-04-14T02:08:27.168Z,16.14
2023-04-14T02:10:53.628Z,16.14
2023-04-14T02:13:20.019Z,16.13
2023-04-14T02:15:46.433Z,16.12
2023-04-14T02:18:12.942Z,16.11
2023-04-14T02:20:39.325Z,16.09
2023-04-14T02:23:05.691Z,16.07
2023-04-14T02:25:32.072Z,16.07
2023-04-14T02:27:58.477Z,16.07
2023-04-14T02:30:25.019Z,16.05
2023-04-14T02:32:51.363Z,16.03
2023-04-14T02:35:17.711Z,16.01
2023-04-14T02:37:44.175Z,16.00
2023-04-14T02:40:10.558Z,15.99
2023-04-14T02:42:36.979Z,15.99
2023-04-14T02:45:03.394Z,15.98
2023-04-14T02:47:29.798Z,15.97
2023-04-14T02:49:56.143Z,15.97
2023-04-14T02:52:22.565Z,15.95
2023-04-14T02:54:49.031Z,15.94
2023-04-14T02:57:15.398Z,15.93
2023-04-14T02:59:41.826Z,15.91
2023-04-14T03:02:08.403Z,15.90
2023-04-14T03:04:34.708Z,15.88
2023-04-14T03:07:01.023Z,15.86
2023-04-14T03:09:27.396Z,15.85
2023-04-14T03:11:53.814Z,15.85
2023-04-14T03:14:20.238Z,15.83
2023-04-14T03:16:46.660Z,15.82
2023-04-14T03:19:13.050Z,15.81
2023-04-14T03:21:39.465Z,15.80
2023-04-14T03:24:05.871Z,15.78
2023-04-14T03:26:32.235Z,15.77
2023-04-14T03:28:58.693Z,15.76
2023-04-14T03:31:25.006Z,15.75
2023-04-14T03:33:51.381Z,15.73
2023-04-14T03:36:17.813Z,15.73
2023-04-14T03:38:44.188Z,15.70
2023-04-14T03:41:10.608Z,15.70
2023-04-14T03:43:36.975Z,15.70
2023-04-14T03:46:03.417Z,15.69
2023-04-14T03:48:29.842Z,15.66
2023-04-14T03:50:56.164Z,15.66
2023-04-14T03:53:22.542Z,15.64
2023-04-14T03:55:48.968Z,15.63
2023-04-14T03:58:15.353Z,15.63
2023-04-14T04:00:41.747Z,15.61
2023-04-14T04:03:08.334Z,15.59
2023-04-14T04:05:34.591Z,15.59
2023-04-14T04:08:00.981Z,15.59
2023-04-14T04:10:27.327Z,15.59
2023-04-14T04:12:53.702Z,15.57
2023-04-14T04:15:20.096Z,15.55
2023-04-14T04:17:46.552Z,15.56
2023-04-14T04:20:12.920Z,15.56
2023-04-14T04:22:39.363Z,15.55
2023-04-14T04:25:05.781Z,15.53
2023-04-14T04:27:32.168Z,15.55
2023-04-14T04:29:58.674Z,15.58
2023-04-14T04:32:25.244Z,15.57
2023-04-14T04:34:51.382Z,15.58
2023-04-14T04:37:17.798Z,15.58
2023-04-14T04:39:44.160Z,15.59
2023-04-14T04:42:10.578Z,15.60
2023-04-14T04:44:36.957Z,15.63
2023-04-14T04:47:03.331Z,15.64
2023-04-14T04:49:29.897Z,15.66
2023-04-14T04:51:56.301Z,15.67
2023-04-14T04:54:22.719Z,15.68
2023-04-14T04:56:49.159Z,15.70
2023-04-14T04:59:15.541Z,15.71
2023-04-14T05:01:41.959Z,15.73
2023-04-14T05:04:08.675Z,15.75
2023-04-14T05:06:34.994Z,15.76
2023-04-14T05:09:01.666Z,15.79
2023-04-14T05:11:27.826Z,15.83
2023-04-14T05:13:54.450Z,15.85
2023-04-14T05:16:20.990Z,15.86
2023-04-14T05:18:47.264Z,15.89
2023-04-14T05:21:13.629Z,15.90
2023-04-14T05:23:40.038Z,15.91
2023-04-14T05:26:26.963Z,15.92
2023-04-14T05:28:32.871Z,15.93
2023-04-14T05:31:01.265Z,15.95
2023-04-14T05:33:25.735Z,15.99
2023-04-14T05:35:52.147Z,16.01
2023-04-14T05:38:18.557Z,16.05
2023-04-14T05:40:45.018Z,16.08
2023-04-14T05:43:11.402Z,16.12
2023-04-14T05:45:37.806Z,16.15
2023-04-14T05:48:04.313Z,16.20
2023-04-14T05:50:30.654Z,16.26
2023-04-14T05:52:57.075Z,16.32
2023-04-14T05:55:23.449Z,16.40
2023-04-14T05:57:49.824Z,16.46
2023-04-14T06:00:16.228Z,16.53
2023-04-14T06:02:42.846Z,16.58
2023-04-14T06:05:09.140Z,16.62
2023-04-14T06:07:35.960Z,16.66
2023-04-14T06:10:02.350Z,16.70
2023-04-14T06:12:28.756Z,16.73
2023-04-14T06:14:55.387Z,16.76
2023-04-14T06:17:21.840Z,16.80
2023-04-14T06:19:48.199Z,16.83
2023-04-14T06:22:14.610Z,16.85
2023-04-14T06:24:42.320Z,16.88
2023-04-14T06:27:08.734Z,16.90
2023-04-14T06:29:35.103Z,16.93
2023-04-14T06:32:01.561Z,16.97
2023-04-14T06:34:27.964Z,17.01
2023-04-14T06:36:54.334Z,17.06
2023-04-14T06:39:20.708Z,17.11
2023-04-14T06:41:47.118Z,17.16
2023-04-14T06:44:13.480Z,17.24
2023-04-14T06:46:39.920Z,17.30
2023-04-14T06:49:06.608Z,17.36
2023-04-14T06:51:32.988Z,17.44
2023-04-14T06:53:59.605Z,17.53
2023-04-14T06:56:26.068Z,17.57
2023-04-14T06:58:52.489Z,17.64
2023-04-14T07:01:18.885Z,17.73
2023-04-14T07:03:45.251Z,17.84
2023-04-14T07:06:11.926Z,17.97
2023-04-14T07:08:38.199Z,18.12
2023-04-14T07:11:04.632Z,18.32
2023-04-14T07:13:30.996Z,18.61
2023-04-14T07:15:57.415Z,18.94
2023-04-14T07:18:23.798Z,19.30
2023-04-14T07:20:50.178Z,19.66
2023-04-14T07:23:16.625Z,19.98
2023-04-14T07:25:43.041Z,20.22
2023-04-14T07:28:09.431Z,20.50
2023-04-14T07:30:35.837Z,20.76
2023-04-14T07:33:02.293Z,21.02
2023-04-14T07:35:28.633Z,21.29
2023-04-14T07:37:55.223Z,21.51
2023-04-14T07:40:21.638Z,21.69
2023-04-14T07:42:48.106Z,21.86
2023-04-14T07:45:14.470Z,22.00
2023-04-14T07:47:41.049Z,22.10
2023-04-14T07:50:07.436Z,22.19
2023-04-14T07:52:33.819Z,22.26
2023-04-14T07:55:00.308Z,22.39
2023-04-14T07:57:26.729Z,22.62
2023-04-14T07:59:53.108Z,22.87
2023-04-14T08:02:19.577Z,23.12
2023-04-14T08:04:45.929Z,23.37
2023-04-14T08:07:12.297Z,23.61
2023-04-14T08:09:38.804Z,23.80
2023-04-14T08:12:05.216Z,23.97
2023-04-14T08:14:31.637Z,24.14
2023-04-14T08:16:58.010Z,24.31
2023-04-14T08:19:24.432Z,24.46
2023-04-14T08:21:50.846Z,24.61
2023-04-14T08:24:17.279Z,24.77
2023-04-14T08:26:43.668Z,24.94
2023-04-14T08:29:10.047Z,25.10
2023-04-14T08:31:36.487Z,25.25
2023-04-14T08:34:02.862Z,25.37
2023-04-14T08:36:29.240Z,25.51
2023-04-14T08:38:55.789Z,25.62
2023-04-14T08:41:22.195Z,25.73
2023-04-14T08:43:48.579Z,25.85
2023-04-14T08:46:14.987Z,25.99
2023-04-14T08:48:41.354Z,26.13
2023-04-14T08:51:07.793Z,26.22
2023-04-14T08:53:34.226Z,26.34
2023-04-14T08:56:00.596Z,26.29
2023-04-14T08:58:27.005Z,26.26
2023-04-14T09:00:53.723Z,26.19
2023-04-14T09:03:20.240Z,26.15
2023-04-14T09:05:46.447Z,26.07
2023-04-14T09:08:12.864Z,25.96
2023-04-14T09:10:40.702Z,25.82
2023-04-14T09:13:07.328Z,25.80
2023-04-14T09:15:33.695Z,25.73
2023-04-14T09:18:00.487Z,25.65
2023-04-14T09:20:35.718Z,25.66
2023-04-14T09:22:53.259Z,25.73
2023-04-14T09:25:19.653Z,25.85
2023-04-14T09:27:46.000Z,26.06
2023-04-14T09:30:12.503Z,26.35
2023-04-14T09:32:38.963Z,26.67
2023-04-14T09:35:05.637Z,26.97
2023-04-14T09:37:32.003Z,27.23
2023-04-14T09:39:58.384Z,27.39
2023-04-14T09:42:24.759Z,27.55
2023-04-14T09:44:51.164Z,27.75
2023-04-14T09:47:17.599Z,27.95
2023-04-14T09:49:43.958Z,28.21
2023-04-14T09:52:10.353Z,28.46
2023-04-14T09:54:36.931Z,28.69
2023-04-14T09:57:03.376Z,28.87
2023-04-14T09:59:29.788Z,29.01
2023-04-14T10:01:56.408Z,29.15
2023-04-14T10:04:23.994Z,29.30
2023-04-14T10:06:49.104Z,29.47
2023-04-14T10:09:15.551Z,29.66
2023-04-14T10:11:41.980Z,29.79
2023-04-14T10:14:08.355Z,29.82
2023-04-14T10:16:34.999Z,29.68
2023-04-14T10:19:01.290Z,29.45
2023-04-14T10:21:27.505Z,29.15
2023-04-14T10:23:53.913Z,28.86
2023-04-14T10:26:20.292Z,28.59
2023-04-14T10:28:46.813Z,28.35
2023-04-14T10:31:13.254Z,28.09
2023-04-14T10:33:39.594Z,27.87
2023-04-14T10:36:06.035Z,27.69
2023-04-14T10:38:32.736Z,27.49
2023-04-14T10:40:59.131Z,27.29
2023-04-14T10:43:25.547Z,27.08
2023-04-14T10:45:51.913Z,26.89
2023-04-14T10:48:18.473Z,26.71
2023-04-14T10:50:44.897Z,26.51
2023-04-14T10:53:11.307Z,26.34
2023-04-14T10:55:51.354Z,26.19
2023-04-14T10:58:04.137Z,26.03
2023-04-14T11:00:30.509Z,25.85
2023-04-14T11:02:57.125Z,25.66
2023-04-14T11:05:23.343Z,25.49
2023-04-14T11:07:49.751Z,24.71
2023-04-14T11:10:16.307Z,24.16
2023-04-14T11:12:42.657Z,23.35
2023-04-14T11:15:09.020Z,22.71
2023-04-14T11:17:35.566Z,22.42
2023-04-14T11:20:01.817Z,22.38
2023-04-14T11:22:28.141Z,22.67
2023-04-14T11:24:56.709Z,22.52
2023-04-14T11:27:23.281Z,22.16
2023-04-14T11:29:49.689Z,22.04
2023-04-14T11:32:16.199Z,21.92
2023-04-14T11:34:42.731Z,21.89
2023-04-14T11:37:09.194Z,21.88
2023-04-14T11:39:35.586Z,21.71
2023-04-14T11:42:02.128Z,21.48
2023-04-14T11:44:28.482Z,21.62
2023-04-14T11:46:55.863Z,21.66
2023-04-14T11:49:22.303Z,21.58
2023-04-14T11:51:48.628Z,21.40
2023-04-14T11:54:15.079Z,21.19
2023-04-14T11:56:41.561Z,21.05
2023-04-14T11:59:07.934Z,20.95
2023-04-14T12:01:34.333Z,20.79
2023-04-14T12:04:00.851Z,20.65
2023-04-14T12:06:27.106Z,20.41
2023-04-14T12:08:53.535Z,20.17
2023-04-14T12:11:19.910Z,19.98
2023-04-14T12:13:46.342Z,19.83
2023-04-14T12:16:12.856Z,19.86
2023-04-14T12:18:39.381Z,19.85
2023-04-14T12:21:07.307Z,19.80
2023-04-14T12:23:32.322Z,19.75
2023-04-14T12:25:58.730Z,19.68
2023-04-14T12:28:25.245Z,19.62
2023-04-14T12:30:51.776Z,19.52
2023-04-14T12:33:18.150Z,19.44
2023-04-14T12:35:44.529Z,19.32
2023-04-14T12:38:10.935Z,19.20
2023-04-14T12:40:37.296Z,19.11
2023-04-14T12:43:03.678Z,19.13
2023-04-14T12:45:30.300Z,19.29
2023-04-14T12:47:56.633Z,19.52
2023-04-14T12:50:25.299Z,19.38
2023-04-14T12:52:51.750Z,19.19
2023-04-14T12:55:18.183Z,19.03
2023-04-14T12:57:44.550Z,18.90
2023-04-14T13:00:11.005Z,18.86
2023-04-14T13:02:37.484Z,18.78
2023-04-14T13:05:03.788Z,18.67
2023-04-14T13:07:30.192Z,18.62
2023-04-14T13:09:56.620Z,18.61
2023-04-14T13:12:23.041Z,18.62
2023-04-14T13:14:49.688Z,18.55
2023-04-14T13:17:16.294Z,18.48
2023-04-14T13:19:42.685Z,18.38
2023-04-14T13:22:09.130Z,18.31
2023-04-14T13:24:35.455Z,18.26
2023-04-14T13:27:01.836Z,18.20
2023-04-14T13:29:28.274Z,18.18
2023-04-14T13:31:56.857Z,18.22
2023-04-14T13:34:23.234Z,18.26
2023-04-14T13:36:49.606Z,18.22
2023-04-14T13:39:16.303Z,18.13
2023-04-14T13:41:43.060Z,18.01
2023-04-14T13:44:09.773Z,17.95
2023-04-14T13:46:41.125Z,17.87
2023-04-14T13:49:04.276Z,17.87
2023-04-14T13:51:31.708Z,17.93
2023-04-14T13:53:57.276Z,17.96
2023-04-14T13:56:23.733Z,17.95
2023-04-14T13:58:50.113Z,17.92
2023-04-14T14:01:16.495Z,17.86
2023-04-14T14:03:43.395Z,17.82
2023-04-14T14:06:09.745Z,17.72
2023-04-14T14:08:36.234Z,17.69
2023-04-14T14:11:02.630Z,17.69
2023-04-14T14:13:29.014Z,17.69
2023-04-14T14:15:55.446Z,17.69
2023-04-14T14:18:21.842Z,17.65
2023-04-14T14:20:50.026Z,17.56
2023-04-14T14:23:14.989Z,17.49
2023-04-14T14:25:41.406Z,17.46
2023-04-14T14:28:07.897Z,17.30
2023-04-14T14:30:34.563Z,17.28
2023-04-14T14:33:01.085Z,17.27
2023-04-14T14:35:27.750Z,17.21
2023-04-14T14:37:54.145Z,17.12
2023-04-14T14:40:20.587Z,17.11
2023-04-14T14:42:47.461Z,17.03
2023-04-14T14:45:13.887Z,16.99
2023-04-14T14:47:40.423Z,16.97
2023-04-14T14:50:08.458Z,16.98
2023-04-14T14:52:33.068Z,17.09
2023-04-14T14:54:59.760Z,17.23
2023-04-14T14:57:26.150Z,17.35
2023-04-14T14:59:52.546Z,17.43
2023-04-14T15:02:19.105Z,17.50
2023-04-14T15:04:47.603Z,17.56
2023-04-14T15:07:13.997Z,17.63
2023-04-14T15:09:40.382Z,17.66
2023-04-14T15:12:06.768Z,17.54
2023-04-14T15:14:33.287Z,17.36
2023-04-14T15:16:59.726Z,17.23
2023-04-14T15:19:26.099Z,17.12
2023-04-14T15:21:52.592Z,17.06
2023-04-14T15:24:20.112Z,17.00
2023-04-14T15:26:46.476Z,16.96
2023-04-14T15:29:13.012Z,16.96
2023-04-14T15:31:39.403Z,16.93
2023-04-14T15:34:05.721Z,16.90
2023-04-14T15:36:32.141Z,16.91
2023-04-14T15:38:58.519Z,16.92
2023-04-14T15:41:24.898Z,16.92
2023-04-14T15:43:51.265Z,16.93
2023-04-14T15:46:17.827Z,16.91
2023-04-14T15:48:44.161Z,16.89
2023-04-14T15:51:10.594Z,16.84
2023-04-14T15:53:37.099Z,16.83
2023-04-14T15:56:03.423Z,16.82
2023-04-14T15:58:29.838Z,16.79
2023-04-14T16:00:56.306Z,16.75
2023-04-14T16:03:23.162Z,16.73
2023-04-14T16:05:49.597Z,16.71
2023-04-14T16:08:16.152Z,16.67
2023-04-14T16:10:43.010Z,16.64
2023-04-14T16:13:09.422Z,16.59
2023-04-14T16:15:35.883Z,16.56
2023-04-14T16:18:02.277Z,16.53
2023-04-14T16:20:28.670Z,16.50
2023-04-14T16:22:55.027Z,16.46
2023-04-14T16:25:22.228Z,16.41
2023-04-14T16:27:47.869Z,16.38
2023-04-14T16:30:14.259Z,16.34
2023-04-14T16:32:40.704Z,16.27
2023-04-14T16:35:09.013Z,16.22
2023-04-14T16:37:35.442Z,16.16
2023-04-14T16:40:01.935Z,16.12
2023-04-14T16:42:28.354Z,16.08
2023-04-14T16:44:54.732Z,16.04
2023-04-14T16:47:21.137Z,16.01
2023-04-14T16:49:47.519Z,16.02
2023-04-14T16:52:14.968Z,16.03
2023-04-14T16:54:41.377Z,15.96
2023-04-14T16:57:07.788Z,15.89
2023-04-14T16:59:34.274Z,15.82
2023-04-14T17:02:00.857Z,15.79
2023-04-14T17:04:27.546Z,15.72
2023-04-14T17:06:53.806Z,15.68
2023-04-14T17:09:20.187Z,15.63
2023-04-14T17:11:46.692Z,15.61
2023-04-14T17:14:13.059Z,15.57
2023-04-14T17:16:39.499Z,15.51
2023-04-14T17:19:05.900Z,15.50
2023-04-14T17:21:32.456Z,15.47
2023-04-14T17:23:58.835Z,15.40
2023-04-14T17:26:25.331Z,15.33
2023-04-14T17:28:52.740Z,15.30
2023-04-14T17:31:19.136Z,15.26
2023-04-14T17:33:45.509Z,15.25
2023-04-14T17:36:11.878Z,15.25
2023-04-14T17:38:38.298Z,15.24
2023-04-14T17:41:04.747Z,15.21
2023-04-14T17:43:31.129Z,15.17
2023-04-14T17:45:59.817Z,15.12
2023-04-14T17:48:27.279Z,15.09
2023-04-14T17:50:53.678Z,15.09
2023-04-14T17:53:20.127Z,15.11
2023-04-14T17:55:46.530Z,15.09
2023-04-14T17:58:12.950Z,15.09
2023-04-14T18:00:39.345Z,15.09
2023-04-14T18:03:05.947Z,15.08
2023-04-14T18:05:32.266Z,15.06
2023-04-14T18:07:58.739Z,15.02
2023-04-14T18:10:25.104Z,14.96
2023-04-14T18:12:51.492Z,14.96
2023-04-14T18:15:17.943Z,14.95
2023-04-14T18:17:44.317Z,14.89
2023-04-14T18:20:10.729Z,14.85
2023-04-14T18:22:37.099Z,14.86
2023-04-14T18:25:03.488Z,14.87
2023-04-14T18:29:56.404Z,14.85
2023-04-14T18:32:22.853Z,14.86
2023-04-14T18:34:49.290Z,14.85
2023-04-14T18:37:15.714Z,14.85
2023-04-14T18:39:42.022Z,14.84
2023-04-14T18:42:08.489Z,14.81
2023-04-14T18:44:34.856Z,14.79
2023-04-14T18:47:01.297Z,14.79
2023-04-14T18:49:27.697Z,14.78
2023-04-14T18:51:54.113Z,14.79
2023-04-14T18:54:20.587Z,14.77
2023-04-14T18:56:47.089Z,14.74
2023-04-14T18:59:13.603Z,14.71
2023-04-14T19:01:40.039Z,14.69
2023-04-14T19:04:06.463Z,14.67
2023-04-14T19:06:32.957Z,14.67
2023-04-14T19:08:59.586Z,14.64
2023-04-14T19:11:25.756Z,14.60
2023-04-14T19:13:52.175Z,14.55
2023-04-14T19:16:19.033Z,14.52
2023-04-14T19:18:45.619Z,14.50
2023-04-14T19:21:12.006Z,14.48
2023-04-14T19:23:38.461Z,14.44
2023-04-14T19:26:04.933Z,14.39
2023-04-14T19:28:31.344Z,14.35
2023-04-14T19:30:57.728Z,14.31
2023-04-14T19:33:26.749Z,14.28
2023-04-14T19:35:51.167Z,14.26
2023-04-14T19:38:17.700Z,14.25
2023-04-14T19:40:44.076Z,14.22
2023-04-14T19:43:10.444Z,14.17
2023-04-14T19:45:36.810Z,14.12
2023-04-14T19:48:15.962Z,14.06
2023-04-14T19:50:29.651Z,13.97
2023-04-14T19:52:56.056Z,13.90
2023-04-14T19:55:22.529Z,13.88
2023-04-14T19:57:48.958Z,13.87
2023-04-14T20:00:15.453Z,13.86
2023-04-14T20:02:41.899Z,13.82
2023-04-14T20:05:08.287Z,13.78
2023-04-14T20:07:34.667Z,13.71
2023-04-14T20:10:01.334Z,13.68
2023-04-14T20:12:27.691Z,13.69
2023-04-14T20:14:54.116Z,13.67
2023-04-14T20:17:20.680Z,13.68
2023-04-14T20:19:47.028Z,13.66
2023-04-14T20:22:13.440Z,13.60
2023-04-14T20:24:39.857Z,13.52
2023-04-14T20:27:06.286Z,13.49
2023-04-14T20:29:32.714Z,13.47
2023-04-14T20:31:59.264Z,13.40
2023-04-14T20:34:25.703Z,13.35
2023-04-14T20:36:52.078Z,13.35
2023-04-14T20:39:19.634Z,13.37
2023-04-14T20:41:46.056Z,13.34
2023-04-14T20:44:12.484Z,13.29
2023-04-14T20:46:38.956Z,13.26
2023-04-14T20:49:05.384Z,13.22
2023-04-14T20:51:31.742Z,13.22
2023-04-14T20:53:58.160Z,13.19
2023-04-14T20:56:24.642Z,13.16
2023-04-14T20:58:51.062Z,13.13
2023-04-14T21:01:17.819Z,13.11
2023-04-14T21:03:44.444Z,13.08
2023-04-14T21:06:10.577Z,13.02
2023-04-14T21:08:37.007Z,13.03
2023-04-14T21:11:16.292Z,13.03
2023-04-14T21:15:24.985Z,12.98
2023-04-14T21:15:56.991Z,12.94
2023-04-14T21:18:22.768Z,12.93
2023-04-14T21:20:49.136Z,12.91
2023-04-14T21:23:15.546Z,12.84
2023-04-14T21:25:41.934Z,12.86
2023-04-14T21:28:08.357Z,12.85
2023-04-14T21:30:34.722Z,12.85
2023-04-14T21:33:01.204Z,12.86
2023-04-14T21:35:27.632Z,12.82
2023-04-14T21:37:53.997Z,12.81
2023-04-14T21:40:20.456Z,12.81
2023-04-14T21:42:46.967Z,12.83
2023-04-14T21:45:15.763Z,12.82
2023-04-14T21:47:42.398Z,12.84
2023-04-14T21:50:08.837Z,12.87
2023-04-14T21:52:35.244Z,12.81
2023-04-14T21:55:01.614Z,12.80
2023-04-14T21:57:48.433Z,12.76
2023-04-14T21:59:54.432Z,12.77
2023-04-14T22:02:20.967Z,12.80
2023-04-14T22:04:47.261Z,12.75
2023-04-14T22:07:13.654Z,12.70
2023-04-14T22:09:40.547Z,12.66
2023-04-14T22:12:06.445Z,12.63
2023-04-14T22:14:32.805Z,12.61
2023-04-14T22:16:59.307Z,12.60
2023-04-14T22:19:25.716Z,12.56
2023-04-14T22:21:52.072Z,12.57
2023-04-14T22:24:20.939Z,12.54
2023-04-14T22:26:47.368Z,12.52
2023-04-14T22:29:13.783Z,12.49
2023-04-14T22:31:40.192Z,12.46
2023-04-14T22:34:06.625Z,12.45
2023-04-14T22:36:33.018Z,12.44
2023-04-14T22:38:59.634Z,12.44
2023-04-14T22:41:25.884Z,12.45
2023-04-14T22:43:52.303Z,12.46
2023-04-14T22:46:18.787Z,12.48
2023-04-14T22:48:45.280Z,12.49
2023-04-14T22:51:11.715Z,12.50
2023-04-14T22:53:38.069Z,12.48
2023-04-14T22:56:04.547Z,12.47
2023-04-14T22:58:31.946Z,12.43
2023-04-14T23:00:58.324Z,12.42
2023-04-14T23:03:24.863Z,12.41
2023-04-14T23:05:51.165Z,12.38
2023-04-14T23:08:17.615Z,12.31
2023-04-14T23:10:43.985Z,12.25
2023-04-14T23:13:10.379Z,12.23
2023-04-14T23:15:36.883Z,12.23
